sensor_id;sensor_type;location;lat;lon;timestamp;pressure;altitude;pressure_sealevel;temperature;humidity
10079;BME280;5078;42.544;22.966;2022-12-05T00:01:25;94757.41;;;5.21;100.00
10079;BME280;5078;42.544;22.966;2022-12-05T00:03:55;94747.97;;;5.29;100.00
10079;BME280;5078;42.544;22.966;2022-12-05T00:06:24;94753.72;;;5.34;100.00
10079;BME280;5078;42.544;22.966;2022-12-05T00:08:51;94742.06;;;5.48;100.00
10079;BME280;5078;42.544;22.966;2022-12-05T00:11:21;94748.41;;;5.46;100.00
10079;BME280;5078;42.544;22.966;2022-12-05T00:13:49;94748.88;;;5.51;100.00
10079;BME280;5078;42.544;22.966;2022-12-05T00:16:18;94746.44;;;5.59;100.00
10079;BME280;5078;42.544;22.966;2022-12-05T00:18:45;94741.91;;;5.61;100.00
10079;BME280;5078;42.544;22.966;2022-12-05T00:21:15;94742.63;;;5.63;100.00
10079;BME280;5078;42.544;22.966;2022-12-05T00:23:43;94743.34;;;5.65;100.00
10079;BME280;5078;42.544;22.966;2022-12-05T00:26:10;94736.66;;;5.61;100.00
10079;BME280;5078;42.544;22.966;2022-12-05T00:28:38;94751.97;;;5.67;100.00
10079;BME280;5078;42.544;22.966;2022-12-05T00:31:07;94752.53;;;5.71;100.00
10079;BME280;5078;42.544;22.966;2022-12-05T00:33:36;94753.03;;;5.65;100.00
10079;BME280;5078;42.544;22.966;2022-12-05T00:36:05;94751.59;;;5.72;100.00
10079;BME280;5078;42.544;22.966;2022-12-05T00:38:34;94736.13;;;5.78;100.00
10079;BME280;5078;42.544;22.966;2022-12-05T00:41:02;94739.09;;;5.41;100.00
10079;BME280;5078;42.544;22.966;2022-12-05T00:43:30;94729.28;;;5.55;100.00
10079;BME280;5078;42.544;22.966;2022-12-05T00:46:00;94729.53;;;5.40;100.00
10079;BME280;5078;42.544;22.966;2022-12-05T00:48:27;94727.63;;;5.31;100.00
10079;BME280;5078;42.544;22.966;2022-12-05T00:50:59;94729.09;;;5.24;100.00
10079;BME280;5078;42.544;22.966;2022-12-05T00:53:26;94719.47;;;5.46;100.00
10079;BME280;5078;42.544;22.966;2022-12-05T00:55:54;94723.91;;;5.34;100.00
10079;BME280;5078;42.544;22.966;2022-12-05T00:58:21;94732.38;;;5.49;100.00
10079;BME280;5078;42.544;22.966;2022-12-05T01:00:47;94732.84;;;5.54;100.00
10079;BME280;5078;42.544;22.966;2022-12-05T01:03:14;94725.66;;;5.67;100.00
10079;BME280;5078;42.544;22.966;2022-12-05T01:05:41;94734.03;;;5.61;100.00
10079;BME280;5078;42.544;22.966;2022-12-05T01:08:07;94729.28;;;5.55;100.00
10079;BME280;5078;42.544;22.966;2022-12-05T01:10:34;94727.25;;;5.47;100.00
10079;BME280;5078;42.544;22.966;2022-12-05T01:13:02;94733.06;;;5.62;100.00
10079;BME280;5078;42.544;22.966;2022-12-05T01:15:29;94731.06;;;5.54;100.00
10079;BME280;5078;42.544;22.966;2022-12-05T01:17:56;94724.25;;;5.52;100.00
10079;BME280;5078;42.544;22.966;2022-12-05T01:20:23;94720.91;;;5.50;100.00
10079;BME280;5078;42.544;22.966;2022-12-05T01:22:54;94710.97;;;5.53;100.00
10079;BME280;5078;42.544;22.966;2022-12-05T01:25:20;94713.38;;;5.45;100.00
10079;BME280;5078;42.544;22.966;2022-12-05T01:27:47;94710.56;;;5.37;100.00
10079;BME280;5078;42.544;22.966;2022-12-05T01:30:15;94708.50;;;5.40;100.00
10079;BME280;5078;42.544;22.966;2022-12-05T01:32:42;94704.69;;;5.33;100.00
10079;BME280;5078;42.544;22.966;2022-12-05T01:35:09;94704.94;;;5.30;100.00
10079;BME280;5078;42.544;22.966;2022-12-05T01:37:36;94706.84;;;5.28;100.00
10079;BME280;5078;42.544;22.966;2022-12-05T01:40:03;94717.72;;;5.35;100.00
10079;BME280;5078;42.544;22.966;2022-12-05T01:42:30;94702.50;;;5.50;100.00
10079;BME280;5078;42.544;22.966;2022-12-05T01:45:07;94713.53;;;5.32;100.00
10079;BME280;5078;42.544;22.966;2022-12-05T01:47:41;94717.06;;;5.54;100.00
10079;BME280;5078;42.544;22.966;2022-12-05T01:50:08;94718.91;;;5.42;100.00
10079;BME280;5078;42.544;22.966;2022-12-05T01:52:36;94717.06;;;5.54;100.00
10079;BME280;5078;42.544;22.966;2022-12-05T01:55:08;94722.94;;;5.46;100.00
10079;BME280;5078;42.544;22.966;2022-12-05T01:57:43;94718.56;;;5.35;100.00
10079;BME280;5078;42.544;22.966;2022-12-05T02:00:13;94715.00;;;5.14;100.00
10079;BME280;5078;42.544;22.966;2022-12-05T02:02:43;94716.44;;;5.18;100.00
10079;BME280;5078;42.544;22.966;2022-12-05T02:05:15;94716.06;;;5.11;100.00
10079;BME280;5078;42.544;22.966;2022-12-05T02:07:43;94718.34;;;5.16;100.00
10079;BME280;5078;42.544;22.966;2022-12-05T02:10:12;94719.16;;;5.16;100.00
10079;BME280;5078;42.544;22.966;2022-12-05T02:12:41;94712.66;;;5.00;100.00
10079;BME280;5078;42.544;22.966;2022-12-05T02:18:18;94715.13;;;5.01;100.00
10079;BME280;5078;42.544;22.966;2022-12-05T02:21:00;94715.38;;;4.98;100.00
10079;BME280;5078;42.544;22.966;2022-12-05T02:23:59;94710.22;;;4.96;100.00
10079;BME280;5078;42.544;22.966;2022-12-05T02:26:50;94712.63;;;5.11;100.00
10079;BME280;5078;42.544;22.966;2022-12-05T02:29:53;94701.13;;;5.23;100.00
10079;BME280;5078;42.544;22.966;2022-12-05T02:32:30;94702.94;;;5.11;100.00
10079;BME280;5078;42.544;22.966;2022-12-05T02:35:05;94702.97;;;5.00;100.00
10079;BME280;5078;42.544;22.966;2022-12-05T02:37:44;94703.06;;;4.98;100.00
10079;BME280;5078;42.544;22.966;2022-12-05T02:40:20;94702.84;;;4.90;100.00
10079;BME280;5078;42.544;22.966;2022-12-05T02:42:52;94699.47;;;5.11;100.00
10079;BME280;5078;42.544;22.966;2022-12-05T02:45:24;94681.44;;;5.17;100.00
10079;BME280;5078;42.544;22.966;2022-12-05T02:47:53;94695.03;;;5.23;100.00
10079;BME280;5078;42.544;22.966;2022-12-05T02:50:22;94700.69;;;5.07;100.00
10079;BME280;5078;42.544;22.966;2022-12-05T02:52:52;94695.84;;;5.34;100.00
10079;BME280;5078;42.544;22.966;2022-12-05T02:55:21;94690.25;;;5.28;100.00
10079;BME280;5078;42.544;22.966;2022-12-05T02:57:54;94695.84;;;5.34;100.00
10079;BME280;5078;42.544;22.966;2022-12-05T03:00:24;94701.22;;;5.33;100.00
10079;BME280;5078;42.544;22.966;2022-12-05T03:02:54;94699.81;;;5.17;100.00
10079;BME280;5078;42.544;22.966;2022-12-05T03:05:30;94696.72;;;5.12;100.00
10079;BME280;5078;42.544;22.966;2022-12-05T03:07:59;94702.25;;;4.87;100.00
10079;BME280;5078;42.544;22.966;2022-12-05T03:10:29;94696.22;;;5.18;100.00
10079;BME280;5078;42.544;22.966;2022-12-05T03:13:04;94696.13;;;5.09;100.00
10079;BME280;5078;42.544;22.966;2022-12-05T03:15:38;94694.22;;;5.11;100.00
10079;BME280;5078;42.544;22.966;2022-12-05T03:18:10;94692.56;;;5.10;100.00
10079;BME280;5078;42.544;22.966;2022-12-05T03:20:42;94694.47;;;5.08;100.00
10079;BME280;5078;42.544;22.966;2022-12-05T03:23:13;94686.06;;;5.25;100.00
10079;BME280;5078;42.544;22.966;2022-12-05T03:25:48;94696.34;;;5.28;100.00
10079;BME280;5078;42.544;22.966;2022-12-05T03:28:22;94700.72;;;5.39;100.00
10079;BME280;5078;42.544;22.966;2022-12-05T03:30:54;94689.31;;;5.61;100.00
10079;BME280;5078;42.544;22.966;2022-12-05T03:33:24;94692.72;;;5.73;100.00
10079;BME280;5078;42.544;22.966;2022-12-05T03:35:58;94691.09;;;5.60;100.00
10079;BME280;5078;42.544;22.966;2022-12-05T03:38:34;94683.31;;;5.59;100.00
10079;BME280;5078;42.544;22.966;2022-12-05T03:41:08;94687.28;;;5.65;100.00
10079;BME280;5078;42.544;22.966;2022-12-05T03:43:44;94687.34;;;5.74;100.00
10079;BME280;5078;42.544;22.966;2022-12-05T03:46:21;94688.28;;;5.52;100.00
10079;BME280;5078;42.544;22.966;2022-12-05T03:48:57;94690.63;;;5.55;100.00
10079;BME280;5078;42.544;22.966;2022-12-05T03:51:31;94684.03;;;5.61;100.00
10079;BME280;5078;42.544;22.966;2022-12-05T03:54:01;94689.09;;;5.53;100.00
10079;BME280;5078;42.544;22.966;2022-12-05T03:56:34;94684.25;;;5.37;100.00
10079;BME280;5078;42.544;22.966;2022-12-05T03:59:09;94684.25;;;5.37;100.00
10079;BME280;5078;42.544;22.966;2022-12-05T04:01:40;94685.91;;;5.49;100.00
10079;BME280;5078;42.544;22.966;2022-12-05T04:04:16;94701.13;;;5.34;100.00
10079;BME280;5078;42.544;22.966;2022-12-05T04:06:46;94689.09;;;5.53;100.00
10079;BME280;5078;42.544;22.966;2022-12-05T04:09:17;94688.28;;;5.73;100.00
10079;BME280;5078;42.544;22.966;2022-12-05T04:11:48;94694.00;;;5.78;100.00
10079;BME280;5078;42.544;22.966;2022-12-05T04:14:18;94694.28;;;5.75;100.00
10079;BME280;5078;42.544;22.966;2022-12-05T04:16:54;94667.94;;;5.87;100.00
10079;BME280;5078;42.544;22.966;2022-12-05T04:19:45;94686.41;;;5.96;100.00
10079;BME280;5078;42.544;22.966;2022-12-05T04:22:30;94691.75;;;5.74;100.00
10079;BME280;5078;42.544;22.966;2022-12-05T04:24:58;94693.53;;;5.84;100.00
10079;BME280;5078;42.544;22.966;2022-12-05T04:27:58;94696.66;;;5.78;100.00
10079;BME280;5078;42.544;22.966;2022-12-05T04:30:39;94688.97;;;5.54;100.00
10079;BME280;5078;42.544;22.966;2022-12-05T04:33:14;94693.53;;;5.52;100.00
10079;BME280;5078;42.544;22.966;2022-12-05T04:35:45;94689.59;;;5.79;100.00
10079;BME280;5078;42.544;22.966;2022-12-05T04:38:20;94698.03;;;5.94;100.00
10079;BME280;5078;42.544;22.966;2022-12-05T04:40:56;94694.78;;;5.69;100.00
10079;BME280;5078;42.544;22.966;2022-12-05T04:43:25;94695.94;;;5.76;100.00
10079;BME280;5078;42.544;22.966;2022-12-05T04:45:55;94677.91;;;5.39;100.00
10079;BME280;5078;42.544;22.966;2022-12-05T04:48:26;94699.44;;;5.66;100.00
10079;BME280;5078;42.544;22.966;2022-12-05T04:50:54;94701.13;;;5.34;100.00
10079;BME280;5078;42.544;22.966;2022-12-05T04:53:25;94704.91;;;5.41;100.00
10079;BME280;5078;42.544;22.966;2022-12-05T04:55:54;94709.06;;;5.44;100.00
10079;BME280;5078;42.544;22.966;2022-12-05T04:58:25;94709.06;;;5.44;100.00
10079;BME280;5078;42.544;22.966;2022-12-05T05:00:56;94713.75;;;5.52;100.00
10079;BME280;5078;42.544;22.966;2022-12-05T05:03:29;94706.38;;;5.23;100.00
10079;BME280;5078;42.544;22.966;2022-12-05T05:06:01;94724.72;;;5.57;100.00
10079;BME280;5078;42.544;22.966;2022-12-05T05:08:28;94724.50;;;5.81;100.00
10079;BME280;5078;42.544;22.966;2022-12-05T05:11:08;94731.22;;;5.74;100.00
10079;BME280;5078;42.544;22.966;2022-12-05T05:13:44;94727.94;;;5.93;100.00
10079;BME280;5078;42.544;22.966;2022-12-05T05:16:13;94729.41;;;5.97;100.00
10079;BME280;5078;42.544;22.966;2022-12-05T05:18:43;94738.91;;;6.09;100.00
10079;BME280;5078;42.544;22.966;2022-12-05T05:21:15;94739.22;;;6.16;100.00
10079;BME280;5078;42.544;22.966;2022-12-05T05:23:43;94738.47;;;6.25;100.00
10079;BME280;5078;42.544;22.966;2022-12-05T05:26:10;94737.22;;;6.08;100.00
10079;BME280;5078;42.544;22.966;2022-12-05T05:28:37;94742.38;;;6.31;100.00
10079;BME280;5078;42.544;22.966;2022-12-05T05:31:04;94742.31;;;6.21;100.00
10079;BME280;5078;42.544;22.966;2022-12-05T05:33:31;94751.25;;;6.30;100.00
10079;BME280;5078;42.544;22.966;2022-12-05T05:36:03;94757.72;;;6.67;100.00
10079;BME280;5078;42.544;22.966;2022-12-05T05:38:32;94758.34;;;6.81;100.00
10079;BME280;5078;42.544;22.966;2022-12-05T05:41:00;94765.09;;;6.74;100.00
10079;BME280;5078;42.544;22.966;2022-12-05T05:43:27;94759.84;;;6.74;100.00
10079;BME280;5078;42.544;22.966;2022-12-05T05:45:53;94764.66;;;6.68;100.00
10079;BME280;5078;42.544;22.966;2022-12-05T05:48:20;94756.78;;;6.26;100.00
10079;BME280;5078;42.544;22.966;2022-12-05T05:50:47;94759.09;;;6.20;100.00
10079;BME280;5078;42.544;22.966;2022-12-05T05:53:15;94765.16;;;5.99;100.00
10079;BME280;5078;42.544;22.966;2022-12-05T05:55:42;94762.91;;;5.95;100.00
10079;BME280;5078;42.544;22.966;2022-12-05T05:58:09;94763.25;;;5.47;100.00
10079;BME280;5078;42.544;22.966;2022-12-05T06:00:35;94762.22;;;5.70;100.00
10079;BME280;5078;42.544;22.966;2022-12-05T06:03:02;94754.03;;;5.96;100.00
10079;BME280;5078;42.544;22.966;2022-12-05T06:05:29;94756.03;;;6.03;100.00
10079;BME280;5078;42.544;22.966;2022-12-05T06:07:55;94756.56;;;6.18;100.00
10079;BME280;5078;42.544;22.966;2022-12-05T06:10:24;94755.69;;;6.29;100.00
10079;BME280;5078;42.544;22.966;2022-12-05T06:12:50;94760.97;;;6.29;100.00
10079;BME280;5078;42.544;22.966;2022-12-05T06:15:17;94760.28;;;6.16;100.00
10079;BME280;5078;42.544;22.966;2022-12-05T06:17:44;94768.34;;;6.14;100.00
10079;BME280;5078;42.544;22.966;2022-12-05T06:20:12;94758.88;;;6.12;100.00
10079;BME280;5078;42.544;22.966;2022-12-05T06:22:39;94757.66;;;6.16;100.00
10079;BME280;5078;42.544;22.966;2022-12-05T06:25:06;94760.88;;;6.19;100.00
10079;BME280;5078;42.544;22.966;2022-12-05T06:27:35;94758.09;;;5.89;100.00
10079;BME280;5078;42.544;22.966;2022-12-05T06:30:02;94742.31;;;6.00;100.00
10079;BME280;5078;42.544;22.966;2022-12-05T06:32:30;94756.63;;;6.07;100.00
10079;BME280;5078;42.544;22.966;2022-12-05T06:34:57;94750.47;;;5.97;100.00
10079;BME280;5078;42.544;22.966;2022-12-05T06:37:23;94748.28;;;5.91;100.00
10079;BME280;5078;42.544;22.966;2022-12-05T06:39:50;94759.28;;;5.96;100.00
10079;BME280;5078;42.544;22.966;2022-12-05T06:42:17;94760.72;;;6.00;100.00
10079;BME280;5078;42.544;22.966;2022-12-05T06:44:47;94772.47;;;5.84;100.00
10079;BME280;5078;42.544;22.966;2022-12-05T06:47:14;94768.97;;;6.07;100.00
10079;BME280;5078;42.544;22.966;2022-12-05T06:49:41;94773.13;;;6.09;100.00
10079;BME280;5078;42.544;22.966;2022-12-05T06:52:07;94771.25;;;6.00;100.00
10079;BME280;5078;42.544;22.966;2022-12-05T06:54:35;94767.38;;;6.04;100.00
10079;BME280;5078;42.544;22.966;2022-12-05T06:57:01;94766.16;;;5.76;100.00
10079;BME280;5078;42.544;22.966;2022-12-05T06:59:28;94762.13;;;5.72;100.00
10079;BME280;5078;42.544;22.966;2022-12-05T07:01:56;94763.97;;;5.81;100.00
10079;BME280;5078;42.544;22.966;2022-12-05T07:04:22;94757.63;;;5.95;100.00
10079;BME280;5078;42.544;22.966;2022-12-05T07:06:50;94764.91;;;5.91;100.00
10079;BME280;5078;42.544;22.966;2022-12-05T07:09:19;94763.63;;;5.97;100.00
10079;BME280;5078;42.544;22.966;2022-12-05T07:11:46;94765.44;;;5.74;100.00
10079;BME280;5078;42.544;22.966;2022-12-05T07:14:13;94764.03;;;5.58;100.00
10079;BME280;5078;42.544;22.966;2022-12-05T07:16:40;94754.78;;;5.75;100.00
10079;BME280;5078;42.544;22.966;2022-12-05T07:19:09;94755.59;;;5.87;100.00
10079;BME280;5078;42.544;22.966;2022-12-05T07:21:36;94760.78;;;5.66;100.00
10079;BME280;5078;42.544;22.966;2022-12-05T07:24:03;94760.25;;;5.83;100.00
10079;BME280;5078;42.544;22.966;2022-12-05T07:26:31;94763.56;;;6.08;100.00
10079;BME280;5078;42.544;22.966;2022-12-05T07:28:58;94769.25;;;6.24;100.00
10079;BME280;5078;42.544;22.966;2022-12-05T07:31:24;94771.72;;;6.26;100.00
10079;BME280;5078;42.544;22.966;2022-12-05T07:33:54;94766.34;;;6.28;100.00
10079;BME280;5078;42.544;22.966;2022-12-05T07:36:22;94767.97;;;6.40;100.00
10079;BME280;5078;42.544;22.966;2022-12-05T07:38:55;94769.63;;;6.41;100.00
10079;BME280;5078;42.544;22.966;2022-12-05T07:41:23;94778.69;;;6.27;100.00
10079;BME280;5078;42.544;22.966;2022-12-05T07:43:51;94774.91;;;6.09;100.00
10079;BME280;5078;42.544;22.966;2022-12-05T07:46:18;94775.63;;;5.67;100.00
10079;BME280;5078;42.544;22.966;2022-12-05T07:48:46;94779.75;;;5.81;100.00
10079;BME280;5078;42.544;22.966;2022-12-05T07:51:13;94774.38;;;5.82;100.00
10079;BME280;5078;42.544;22.966;2022-12-05T07:53:42;94782.06;;;5.74;100.00
10079;BME280;5078;42.544;22.966;2022-12-05T07:56:11;94793.22;;;5.55;100.00
10079;BME280;5078;42.544;22.966;2022-12-05T07:58:39;94789.50;;;5.69;100.00
10079;BME280;5078;42.544;22.966;2022-12-05T08:01:07;94780.38;;;5.73;100.00
10079;BME280;5078;42.544;22.966;2022-12-05T08:03:34;94778.56;;;5.85;100.00
10079;BME280;5078;42.544;22.966;2022-12-05T08:06:02;94775.59;;;5.78;100.00
10079;BME280;5078;42.544;22.966;2022-12-05T08:08:28;94780.75;;;5.80;100.00
10079;BME280;5078;42.544;22.966;2022-12-05T08:11:01;94776.06;;;5.83;100.00
10079;BME280;5078;42.544;22.966;2022-12-05T08:13:28;94776.88;;;5.84;100.00
10079;BME280;5078;42.544;22.966;2022-12-05T08:15:59;94789.72;;;5.66;100.00
10079;BME280;5078;42.544;22.966;2022-12-05T08:18:26;94787.25;;;5.65;100.00
10079;BME280;5078;42.544;22.966;2022-12-05T08:20:53;94788.03;;;5.76;100.00
10079;BME280;5078;42.544;22.966;2022-12-05T08:23:19;94791.47;;;5.45;100.00
10079;BME280;5078;42.544;22.966;2022-12-05T08:25:46;94788.16;;;5.75;100.00
10079;BME280;5078;42.544;22.966;2022-12-05T08:28:14;94787.69;;;5.70;100.00
10079;BME280;5078;42.544;22.966;2022-12-05T08:30:41;94793.69;;;5.60;100.00
10079;BME280;5078;42.544;22.966;2022-12-05T08:33:07;94793.59;;;5.51;100.00
10079;BME280;5078;42.544;22.966;2022-12-05T08:35:35;94791.31;;;5.46;100.00
10079;BME280;5078;42.544;22.966;2022-12-05T08:38:02;94793.59;;;5.62;100.00
10079;BME280;5078;42.544;22.966;2022-12-05T08:40:29;94795.59;;;5.70;100.00
10079;BME280;5078;42.544;22.966;2022-12-05T08:42:58;94789.66;;;5.89;100.00
10079;BME280;5078;42.544;22.966;2022-12-05T08:45:26;94786.50;;;6.17;100.00
10079;BME280;5078;42.544;22.966;2022-12-05T08:47:53;94784.63;;;6.08;100.00
10079;BME280;5078;42.544;22.966;2022-12-05T08:50:19;94786.06;;;6.01;100.00
10079;BME280;5078;42.544;22.966;2022-12-05T08:52:46;94790.94;;;6.17;100.00
10079;BME280;5078;42.544;22.966;2022-12-05T08:55:13;94786.31;;;6.30;100.00
10079;BME280;5078;42.544;22.966;2022-12-05T08:57:39;94783.75;;;6.40;100.00
10079;BME280;5078;42.544;22.966;2022-12-05T09:00:07;94787.78;;;6.44;100.00
10079;BME280;5078;42.544;22.966;2022-12-05T09:02:35;94792.19;;;6.55;100.00
10079;BME280;5078;42.544;22.966;2022-12-05T09:05:02;94786.59;;;6.69;100.00
10079;BME280;5078;42.544;22.966;2022-12-05T09:07:29;94791.66;;;6.61;100.00
10079;BME280;5078;42.544;22.966;2022-12-05T09:09:56;94791.66;;;6.61;100.00
10079;BME280;5078;42.544;22.966;2022-12-05T09:12:25;94788.13;;;6.51;100.00
10079;BME280;5078;42.544;22.966;2022-12-05T09:14:52;94793.84;;;6.35;100.00
10079;BME280;5078;42.544;22.966;2022-12-05T09:17:18;94791.41;;;6.43;100.00
10079;BME280;5078;42.544;22.966;2022-12-05T09:19:50;94785.22;;;6.54;100.00
10079;BME280;5078;42.544;22.966;2022-12-05T09:22:16;94782.22;;;6.37;100.00
10079;BME280;5078;42.544;22.966;2022-12-05T09:24:43;94773.72;;;6.34;100.00
10079;BME280;5078;42.544;22.966;2022-12-05T09:27:10;94768.44;;;6.34;100.00
10079;BME280;5078;42.544;22.966;2022-12-05T09:29:36;94768.22;;;6.37;100.00
10079;BME280;5078;42.544;22.966;2022-12-05T09:32:03;94763.63;;;6.39;100.00
10079;BME280;5078;42.544;22.966;2022-12-05T09:34:30;94769.06;;;6.37;100.00
10079;BME280;5078;42.544;22.966;2022-12-05T09:36:59;94764.41;;;6.51;100.00
10079;BME280;5078;42.544;22.966;2022-12-05T09:39:26;94765.97;;;6.74;100.00
10079;BME280;5078;42.544;22.966;2022-12-05T09:42:08;94764.88;;;6.77;100.00
10079;BME280;5078;42.544;22.966;2022-12-05T09:45:13;94758.56;;;6.89;100.00
10079;BME280;5078;42.544;22.966;2022-12-05T09:47:47;94752.03;;;6.93;100.00
10079;BME280;5078;42.544;22.966;2022-12-05T09:50:18;94749.06;;;7.07;100.00
10079;BME280;5078;42.544;22.966;2022-12-05T09:52:58;94742.38;;;7.03;100.00
10079;BME280;5078;42.544;22.966;2022-12-05T09:55:35;94737.28;;;7.21;100.00
10079;BME280;5078;42.544;22.966;2022-12-05T09:58:04;94737.34;;;7.41;100.00
10079;BME280;5078;42.544;22.966;2022-12-05T10:00:38;94728.63;;;7.40;100.00
10079;BME280;5078;42.544;22.966;2022-12-05T10:03:12;94729.06;;;7.55;100.00
10079;BME280;5078;42.544;22.966;2022-12-05T10:05:52;94731.03;;;7.63;100.00
10079;BME280;5078;42.544;22.966;2022-12-05T10:08:26;94715.47;;;7.69;100.00
10079;BME280;5078;42.544;22.966;2022-12-05T10:10:59;94717.44;;;7.87;100.00
10079;BME280;5078;42.544;22.966;2022-12-05T10:13:41;94716.31;;;7.80;100.00
10079;BME280;5078;42.544;22.966;2022-12-05T10:16:13;94717.84;;;7.82;100.00
10079;BME280;5078;42.544;22.966;2022-12-05T10:18:45;94713.13;;;7.86;100.00
10079;BME280;5078;42.544;22.966;2022-12-05T10:21:17;94710.66;;;7.94;100.00
10079;BME280;5078;42.544;22.966;2022-12-05T10:23:53;94697.69;;;8.10;100.00
10079;BME280;5078;42.544;22.966;2022-12-05T10:26:22;94698.38;;;8.22;100.00
10079;BME280;5078;42.544;22.966;2022-12-05T10:28:55;94698.28;;;8.14;100.00
10079;BME280;5078;42.544;22.966;2022-12-05T10:31:26;94703.78;;;8.30;100.00
10079;BME280;5078;42.544;22.966;2022-12-05T10:34:01;94693.34;;;8.58;100.00
10079;BME280;5078;42.544;22.966;2022-12-05T10:36:29;94700.09;;;8.80;100.00
10079;BME280;5078;42.544;22.966;2022-12-05T10:38:58;94698.06;;;8.64;100.00
10079;BME280;5078;42.544;22.966;2022-12-05T10:41:25;94689.72;;;8.69;100.00
10079;BME280;5078;42.544;22.966;2022-12-05T10:43:53;94695.84;;;8.69;100.00
10079;BME280;5078;42.544;22.966;2022-12-05T10:46:21;94696.00;;;8.38;100.00
10079;BME280;5078;42.544;22.966;2022-12-05T10:48:48;94696.56;;;8.23;100.00
10079;BME280;5078;42.544;22.966;2022-12-05T10:51:26;94699.91;;;8.25;100.00
10079;BME280;5078;42.544;22.966;2022-12-05T10:53:53;94700.47;;;8.18;100.00
10079;BME280;5078;42.544;22.966;2022-12-05T10:56:42;94703.50;;;8.33;100.00
10079;BME280;5078;42.544;22.966;2022-12-05T10:59:10;94697.69;;;8.00;100.00
10079;BME280;5078;42.544;22.966;2022-12-05T11:01:43;94688.94;;;8.19;100.00
10079;BME280;5078;42.544;22.966;2022-12-05T11:04:19;94684.59;;;8.18;100.00
10079;BME280;5078;42.544;22.966;2022-12-05T11:06:53;94674.63;;;7.93;100.00
10079;BME280;5078;42.544;22.966;2022-12-05T11:09:22;94680.50;;;7.96;100.00
10079;BME280;5078;42.544;22.966;2022-12-05T11:12:02;94679.78;;;7.65;100.00
10079;BME280;5078;42.544;22.966;2022-12-05T11:14:31;94676.56;;;7.91;100.00
10079;BME280;5078;42.544;22.966;2022-12-05T11:17:02;94675.63;;;7.92;100.00
10079;BME280;5078;42.544;22.966;2022-12-05T11:19:33;94668.25;;;7.95;100.00
10079;BME280;5078;42.544;22.966;2022-12-05T11:22:00;94674.47;;;8.24;100.00
10079;BME280;5078;42.544;22.966;2022-12-05T11:24:29;94663.44;;;8.38;100.00
10079;BME280;5078;42.544;22.966;2022-12-05T11:26:59;94663.44;;;8.38;100.00
10079;BME280;5078;42.544;22.966;2022-12-05T11:29:33;94657.31;;;8.57;100.00
10079;BME280;5078;42.544;22.966;2022-12-05T11:32:01;94654.13;;;8.53;100.00
10079;BME280;5078;42.544;22.966;2022-12-05T11:34:34;94643.34;;;8.08;100.00
10079;BME280;5078;42.544;22.966;2022-12-05T11:37:11;94649.03;;;8.13;100.00
10079;BME280;5078;42.544;22.966;2022-12-05T11:39:39;94640.78;;;8.35;100.00
10079;BME280;5078;42.544;22.966;2022-12-05T11:42:18;94640.19;;;8.61;100.00
10079;BME280;5078;42.544;22.966;2022-12-05T11:44:58;94637.53;;;8.61;100.00
10079;BME280;5078;42.544;22.966;2022-12-05T11:47:39;94632.03;;;8.54;100.00
10079;BME280;5078;42.544;22.966;2022-12-05T11:50:21;94628.34;;;8.65;100.00
10079;BME280;5078;42.544;22.966;2022-12-05T11:52:57;94629.34;;;8.64;100.00
10079;BME280;5078;42.544;22.966;2022-12-05T11:55:33;94623.63;;;8.69;100.00
10079;BME280;5078;42.544;22.966;2022-12-05T11:58:27;94627.75;;;8.34;100.00
10079;BME280;5078;42.544;22.966;2022-12-05T12:01:03;94620.94;;;8.31;100.00
10079;BME280;5078;42.544;22.966;2022-12-05T12:03:54;94619.63;;;8.55;100.00
10079;BME280;5078;42.544;22.966;2022-12-05T12:06:27;94612.50;;;8.65;100.00
10079;BME280;5078;42.544;22.966;2022-12-05T12:09:04;94612.50;;;8.65;100.00
10079;BME280;5078;42.544;22.966;2022-12-05T12:11:41;94615.50;;;8.42;100.00
10079;BME280;5078;42.544;22.966;2022-12-05T12:14:26;94605.22;;;8.20;100.00
10079;BME280;5078;42.544;22.966;2022-12-05T12:17:04;94600.31;;;8.54;100.00
10079;BME280;5078;42.544;22.966;2022-12-05T12:19:56;94594.22;;;8.44;100.00
10079;BME280;5078;42.544;22.966;2022-12-05T12:22:40;94601.03;;;8.47;100.00
10079;BME280;5078;42.544;22.966;2022-12-05T12:25:19;94588.19;;;8.61;100.00
10079;BME280;5078;42.544;22.966;2022-12-05T12:27:58;94585.25;;;8.55;100.00
10079;BME280;5078;42.544;22.966;2022-12-05T12:30:41;94581.06;;;8.90;100.00
10079;BME280;5078;42.544;22.966;2022-12-05T12:33:14;94572.38;;;8.97;100.00
10079;BME280;5078;42.544;22.966;2022-12-05T12:35:50;94566.47;;;8.85;100.00
10079;BME280;5078;42.544;22.966;2022-12-05T12:38:35;94564.97;;;9.01;100.00
10079;BME280;5078;42.544;22.966;2022-12-05T12:41:15;94569.63;;;9.17;100.00
10079;BME280;5078;42.544;22.966;2022-12-05T12:43:56;94567.53;;;8.93;100.00
10079;BME280;5078;42.544;22.966;2022-12-05T12:46:39;94570.06;;;8.94;100.00
10079;BME280;5078;42.544;22.966;2022-12-05T12:49:20;94573.22;;;8.70;100.00
10079;BME280;5078;42.544;22.966;2022-12-05T12:51:57;94571.84;;;8.66;100.00
10079;BME280;5078;42.544;22.966;2022-12-05T12:54:40;94564.38;;;8.61;100.00
10079;BME280;5078;42.544;22.966;2022-12-05T12:57:14;94574.31;;;8.77;100.00
10079;BME280;5078;42.544;22.966;2022-12-05T12:59:58;94563.81;;;8.85;100.00
10079;BME280;5078;42.544;22.966;2022-12-05T13:02:34;94565.59;;;8.95;100.00
10079;BME280;5078;42.544;22.966;2022-12-05T13:05:06;94560.44;;;8.66;100.00
10079;BME280;5078;42.544;22.966;2022-12-05T13:07:35;94568.72;;;8.53;100.00
10079;BME280;5078;42.544;22.966;2022-12-05T13:10:16;94565.81;;;8.09;100.00
10079;BME280;5078;42.544;22.966;2022-12-05T13:12:46;94569.00;;;8.03;100.00
10079;BME280;5078;42.544;22.966;2022-12-05T13:15:17;94570.44;;;8.34;100.00
10079;BME280;5078;42.544;22.966;2022-12-05T13:17:47;94564.03;;;8.47;100.00
10079;BME280;5078;42.544;22.966;2022-12-05T13:20:17;94570.75;;;8.31;100.00
10079;BME280;5078;42.544;22.966;2022-12-05T13:22:45;94574.75;;;8.26;100.00
10079;BME280;5078;42.544;22.966;2022-12-05T13:25:15;94574.00;;;8.06;100.00